Time,TemperatureF,DewpointF,PressureIn,WindDirection,WindDirectionDegrees,WindSpeedMPH,WindSpeedGustMPH,Humidity,HourlyPrecipIn,Conditions,Clouds,dailyrainin,SoftwareType,DateUTC
2013-02-22 00:07:00,39.0,38.5,29.88,ENE,67,4.2,-999.0,98,-99.99,,,0.00,Acu-Link.com,2013-02-22 05:07:00,
2013-02-22 00:22:00,39.0,38.5,29.89,ESE,112,3.7,-999.0,98,-99.99,,,0.00,Acu-Link.com,2013-02-22 05:22:00,
2013-02-22 00:38:00,39.0,38.5,29.87,NE,45,2.7,-999.0,98,-99.99,,,0.00,Acu-Link.com,2013-02-22 05:38:00,
2013-02-22 00:53:00,39.0,38.5,29.89,North,0,0.0,-999.0,98,-99.99,,,0.00,Acu-Link.com,2013-02-22 05:53:00,
2013-02-22 01:08:00,39.2,38.9,29.87,NE,45,0.0,-999.0,99,-99.99,,,0.00,Acu-Link.com,2013-02-22 06:08:00,
2013-02-22 01:23:00,39.4,39.1,29.87,NE,45,2.2,-999.0,99,-99.99,,,0.00,Acu-Link.com,2013-02-22 06:23:00,
2013-02-22 01:38:00,39.4,39.1,29.86,NE,45,2.2,-999.0,99,-99.99,,,0.00,Acu-Link.com,2013-02-22 06:38:00,
2013-02-22 01:53:00,39.4,39.1,29.85,NNE,22,0.0,-999.0,99,-99.99,,,0.00,Acu-Link.com,2013-02-22 06:53:00,
2013-02-22 02:08:00,39.4,39.1,29.87,NW,315,1.1,-999.0,99,-99.99,,,0.00,Acu-Link.com,2013-02-22 07:08:00,
2013-02-22 02:24:00,39.6,39.3,29.87,NNE,22,0.0,-999.0,99,-99.99,,,0.01,Acu-Link.com,2013-02-22 07:24:00,
2013-02-22 02:39:00,39.6,39.3,29.86,NNE,22,0.0,-999.0,99,-99.99,,,0.02,Acu-Link.com,2013-02-22 07:39:00,
2013-02-22 02:54:00,39.6,39.3,29.85,NNE,22,0.0,-999.0,99,-99.99,,,0.02,Acu-Link.com,2013-02-22 07:54:00,
2013-02-22 03:09:00,39.6,39.3,29.85,NNE,22,1.1,-999.0,99,-99.99,,,0.03,Acu-Link.com,2013-02-22 08:09:00,
2013-02-22 03:24:00,39.7,39.4,29.85,North,0,0.0,-999.0,99,-99.99,,,0.04,Acu-Link.com,2013-02-22 08:24:00,
2013-02-22 03:39:00,39.7,39.4,29.84,North,0,0.0,-999.0,99,-99.99,,,0.04,Acu-Link.com,2013-02-22 08:39:00,
2013-02-22 03:55:00,39.7,39.4,29.85,North,0,0.0,-999.0,99,-99.99,,,0.05,Acu-Link.com,2013-02-22 08:55:00,
2013-02-22 04:19:00,39.7,39.4,29.85,NW,315,1.1,-999.0,99,-99.99,,,0.05,Acu-Link.com,2013-02-22 09:19:00,
2013-02-22 04:35:00,39.9,39.6,29.84,WNW,292,0.0,-999.0,99,-99.99,,,0.06,Acu-Link.com,2013-02-22 09:35:00,
2013-02-22 04:50:00,40.1,39.8,29.85,WNW,292,1.7,-999.0,99,-99.99,,,0.06,Acu-Link.com,2013-02-22 09:50:00,
2013-02-22 05:05:00,40.3,40.0,29.84,WNW,292,0.0,-999.0,99,-99.99,,,0.06,Acu-Link.com,2013-02-22 10:05:00,
2013-02-22 05:20:00,40.5,40.2,29.85,WNW,292,0.0,-999.0,99,-99.99,,,0.06,Acu-Link.com,2013-02-22 10:20:00,
2013-02-22 05:35:00,40.8,40.5,29.85,WNW,292,2.2,-999.0,99,-99.99,,,0.06,Acu-Link.com,2013-02-22 10:35:00,
2013-02-22 05:50:00,41.0,40.7,29.85,WNW,292,0.0,-999.0,99,-99.99,,,0.06,Acu-Link.com,2013-02-22 10:50:00,
2013-02-22 06:06:00,41.2,40.9,29.86,WNW,292,0.0,-999.0,99,-99.99,,,0.06,Acu-Link.com,2013-02-22 11:06:00,
2013-02-22 06:21:00,41.5,41.2,29.86,WNW,292,2.7,-999.0,99,-99.99,,,0.06,Acu-Link.com,2013-02-22 11:21:00,
2013-02-22 06:36:00,41.5,41.2,29.86,WNW,292,0.0,-999.0,99,-99.99,,,0.06,Acu-Link.com,2013-02-22 11:36:00,
2013-02-22 06:51:00,41.7,41.4,29.86,WNW,292,0.0,-999.0,99,-99.99,,,0.06,Acu-Link.com,2013-02-22 11:51:00,
2013-02-22 07:06:00,41.9,41.6,29.87,WNW,292,0.0,-999.0,99,-99.99,,,0.06,Acu-Link.com,2013-02-22 12:06:00,
2013-02-22 07:21:00,42.1,41.8,29.89,West,270,2.2,-999.0,99,-99.99,,,0.06,Acu-Link.com,2013-02-22 12:21:00,
2013-02-22 07:36:00,42.4,42.1,29.87,West,270,1.1,-999.0,99,-99.99,,,0.06,Acu-Link.com,2013-02-22 12:36:00,
2013-02-22 07:51:00,42.6,42.3,29.88,West,270,0.0,-999.0,99,-99.99,,,0.06,Acu-Link.com,2013-02-22 12:51:00,
2013-02-22 08:06:00,43.0,42.7,29.89,West,270,0.0,-999.0,99,-99.99,,,0.06,Acu-Link.com,2013-02-22 13:06:00,
2013-02-22 08:22:00,43.3,43.0,29.89,West,270,0.0,-999.0,99,-99.99,,,0.06,Acu-Link.com,2013-02-22 13:22:00,
2013-02-22 08:37:00,43.7,43.4,29.90,West,270,0.0,-999.0,99,-99.99,,,0.06,Acu-Link.com,2013-02-22 13:37:00,
2013-02-22 08:52:00,44.8,44.5,29.91,West,270,0.0,-999.0,99,-99.99,,,0.06,Acu-Link.com,2013-02-22 13:52:00,
2013-02-22 09:07:00,45.7,45.4,29.90,West,270,0.0,-999.0,99,-99.99,,,0.06,Acu-Link.com,2013-02-22 14:07:00,
2013-02-22 09:22:00,46.9,46.6,29.90,West,270,1.7,-999.0,99,-99.99,,,0.06,Acu-Link.com,2013-02-22 14:22:00,
2013-02-22 09:37:00,48.4,47.3,29.89,West,270,3.7,-999.0,96,-99.99,,,0.06,Acu-Link.com,2013-02-22 14:37:00,
2013-02-22 09:52:00,49.5,47.3,29.89,West,270,3.7,-999.0,92,-99.99,,,0.06,Acu-Link.com,2013-02-22 14:52:00,
2013-02-22 10:07:00,49.8,46.7,29.89,SW,225,4.2,-999.0,89,-99.99,,,0.06,Acu-Link.com,2013-02-22 15:07:00,
2013-02-22 10:22:00,50.2,46.8,29.89,WSW,247,5.8,-999.0,88,-99.99,,,0.06,Acu-Link.com,2013-02-22 15:22:00,
2013-02-22 10:38:00,51.6,47.6,29.89,West,270,4.2,-999.0,86,-99.99,,,0.06,Acu-Link.com,2013-02-22 15:38:00,
2013-02-22 10:53:00,52.5,47.5,29.89,West,270,5.8,-999.0,83,-99.99,,,0.06,Acu-Link.com,2013-02-22 15:53:00,
2013-02-22 11:08:00,52.0,47.0,29.89,SW,225,4.2,-999.0,83,-99.99,,,0.06,Acu-Link.com,2013-02-22 16:08:00,
2013-02-22 11:23:00,52.5,48.1,29.88,West,270,3.7,-999.0,85,-99.99,,,0.07,Acu-Link.com,2013-02-22 16:23:00,
2013-02-22 11:38:00,54.1,48.4,29.88,NW,315,3.7,-999.0,81,-99.99,,,0.07,Acu-Link.com,2013-02-22 16:38:00,
2013-02-22 11:53:00,53.4,48.0,29.88,SW,225,2.2,-999.0,82,-99.99,,,0.07,Acu-Link.com,2013-02-22 16:53:00,
2013-02-22 12:08:00,53.6,48.6,29.89,South,180,3.2,-999.0,83,-99.99,,,0.07,Acu-Link.com,2013-02-22 17:08:00,
2013-02-22 12:23:00,53.8,48.4,29.88,WSW,247,4.7,-999.0,82,-99.99,,,0.07,Acu-Link.com,2013-02-22 17:23:00,
2013-02-22 12:38:00,52.9,47.6,29.88,South,180,5.8,-999.0,82,-99.99,,,0.07,Acu-Link.com,2013-02-22 17:38:00,
2013-02-22 12:54:00,54.0,48.3,29.88,WNW,292,4.2,-999.0,81,-99.99,,,0.07,Acu-Link.com,2013-02-22 17:54:00,
2013-02-22 13:09:00,54.5,48.8,29.88,South,180,5.8,-999.0,81,-99.99,,,0.07,Acu-Link.com,2013-02-22 18:09:00,
2013-02-22 13:24:00,53.8,48.4,29.87,SW,225,2.7,-999.0,82,-99.99,,,0.07,Acu-Link.com,2013-02-22 18:24:00,
2013-02-22 13:39:00,54.3,48.3,29.88,SW,225,3.7,-999.0,80,-99.99,,,0.07,Acu-Link.com,2013-02-22 18:39:00,
2013-02-22 13:54:00,53.8,47.8,29.87,SW,225,4.7,-999.0,80,-99.99,,,0.07,Acu-Link.com,2013-02-22 18:54:00,
2013-02-22 14:09:00,53.2,47.2,29.87,West,270,6.3,-999.0,80,-99.99,,,0.07,Acu-Link.com,2013-02-22 19:09:00,
2013-02-22 14:24:00,52.5,47.2,29.87,NW,315,2.7,-999.0,82,-99.99,,,0.07,Acu-Link.com,2013-02-22 19:24:00,
2013-02-22 14:39:00,52.0,47.0,29.86,SSW,202,4.2,-999.0,83,-99.99,,,0.07,Acu-Link.com,2013-02-22 19:39:00,
2013-02-22 14:54:00,52.5,47.2,29.85,WSW,247,1.7,-999.0,82,-99.99,,,0.07,Acu-Link.com,2013-02-22 19:54:00,
2013-02-22 15:10:00,52.5,46.8,29.85,West,270,2.7,-999.0,81,-99.99,,,0.07,Acu-Link.com,2013-02-22 20:10:00,
2013-02-22 15:25:00,51.3,46.3,29.86,WSW,247,3.7,-999.0,83,-99.99,,,0.07,Acu-Link.com,2013-02-22 20:25:00,
2013-02-22 15:40:00,51.4,46.1,29.85,WSW,247,3.2,-999.0,82,-99.99,,,0.07,Acu-Link.com,2013-02-22 20:40:00,
2013-02-22 15:55:00,51.3,46.6,29.85,SW,225,3.7,-999.0,84,-99.99,,,0.07,Acu-Link.com,2013-02-22 20:55:00,
2013-02-22 16:10:00,51.3,46.3,29.83,SW,225,2.2,-999.0,83,-99.99,,,0.07,Acu-Link.com,2013-02-22 21:10:00,
2013-02-22 16:25:00,51.3,46.3,29.84,WSW,247,2.2,-999.0,83,-99.99,,,0.07,Acu-Link.com,2013-02-22 21:25:00,
2013-02-22 16:40:00,51.6,46.0,29.85,West,270,4.2,-999.0,81,-99.99,,,0.07,Acu-Link.com,2013-02-22 21:40:00,
2013-02-22 16:55:00,51.6,46.6,29.83,SSW,202,2.7,-999.0,83,-99.99,,,0.07,Acu-Link.com,2013-02-22 21:55:00,
2013-02-22 17:10:00,51.6,46.3,29.83,SSW,202,4.2,-999.0,82,-99.99,,,0.07,Acu-Link.com,2013-02-22 22:10:00,
2013-02-22 17:26:00,51.1,46.1,29.83,South,180,1.7,-999.0,83,-99.99,,,0.07,Acu-Link.com,2013-02-22 22:26:00,
2013-02-22 17:41:00,50.9,46.2,29.83,SW,225,2.7,-999.0,84,-99.99,,,0.07,Acu-Link.com,2013-02-22 22:41:00,
2013-02-22 17:56:00,50.4,45.8,29.84,WSW,247,2.7,-999.0,84,-99.99,,,0.07,Acu-Link.com,2013-02-22 22:56:00,
2013-02-22 18:11:00,49.8,45.5,29.84,West,270,3.2,-999.0,85,-99.99,,,0.07,Acu-Link.com,2013-02-22 23:11:00,
2013-02-22 18:26:00,49.5,45.5,29.84,West,270,3.7,-999.0,86,-99.99,,,0.07,Acu-Link.com,2013-02-22 23:26:00,
2013-02-22 18:41:00,49.3,45.3,29.85,WSW,247,2.2,-999.0,86,-99.99,,,0.07,Acu-Link.com,2013-02-22 23:41:00,
2013-02-22 18:56:00,48.9,45.2,29.87,West,270,2.7,-999.0,87,-99.99,,,0.07,Acu-Link.com,2013-02-22 23:56:00,
2013-02-22 19:11:00,48.6,44.9,29.85,WSW,247,3.2,-999.0,87,-99.99,,,0.07,Acu-Link.com,2013-02-23 00:11:00,
2013-02-22 19:26:00,48.4,44.7,29.85,WSW,247,2.7,-999.0,87,-99.99,,,0.07,Acu-Link.com,2013-02-23 00:26:00,
2013-02-22 19:42:00,48.2,44.8,29.86,WSW,247,2.2,-999.0,88,-99.99,,,0.07,Acu-Link.com,2013-02-23 00:42:00,
2013-02-22 19:57:00,48.2,44.8,29.86,West,270,3.7,-999.0,88,-99.99,,,0.07,Acu-Link.com,2013-02-23 00:57:00,
2013-02-22 20:12:00,48.2,44.8,29.85,West,270,0.0,-999.0,88,-99.99,,,0.07,Acu-Link.com,2013-02-23 01:12:00,
2013-02-22 20:27:00,48.0,44.6,29.86,West,270,3.2,-999.0,88,-99.99,,,0.07,Acu-Link.com,2013-02-23 01:27:00,
2013-02-22 20:42:00,47.8,44.7,29.86,West,270,3.2,-999.0,89,-99.99,,,0.07,Acu-Link.com,2013-02-23 01:42:00,
2013-02-22 20:57:00,47.7,44.6,29.85,SW,225,2.7,-999.0,89,-99.99,,,0.07,Acu-Link.com,2013-02-23 01:57:00,
2013-02-22 21:12:00,47.5,44.7,29.85,WSW,247,1.7,-999.0,90,-99.99,,,0.07,Acu-Link.com,2013-02-23 02:12:00,
2013-02-22 21:27:00,47.3,44.5,29.87,WSW,247,1.7,-999.0,90,-99.99,,,0.07,Acu-Link.com,2013-02-23 02:27:00,
2013-02-22 21:42:00,47.3,44.8,29.87,WSW,247,3.2,-999.0,91,-99.99,,,0.07,Acu-Link.com,2013-02-23 02:42:00,
2013-02-22 21:58:00,46.9,44.7,29.87,WSW,247,3.7,-999.0,92,-99.99,,,0.07,Acu-Link.com,2013-02-23 02:58:00,
2013-02-22 22:13:00,46.9,45.0,29.87,WSW,247,0.0,-999.0,93,-99.99,,,0.07,Acu-Link.com,2013-02-23 03:13:00,
2013-02-22 22:28:00,46.8,44.9,29.88,SW,225,2.2,-999.0,93,-99.99,,,0.07,Acu-Link.com,2013-02-23 03:28:00,
2013-02-22 22:43:00,46.8,44.9,29.88,SW,225,3.2,-999.0,93,-99.99,,,0.07,Acu-Link.com,2013-02-23 03:43:00,
2013-02-22 22:58:00,46.8,44.9,29.88,WSW,247,0.0,-999.0,93,-99.99,,,0.07,Acu-Link.com,2013-02-23 03:58:00,
2013-02-22 23:13:00,46.6,45.0,29.88,WSW,247,2.7,-999.0,94,-99.99,,,0.07,Acu-Link.com,2013-02-23 04:13:00,
2013-02-22 23:28:00,46.6,45.0,29.87,WNW,292,2.7,-999.0,94,-99.99,,,0.07,Acu-Link.com,2013-02-23 04:28:00,
2013-02-22 23:43:00,46.4,44.8,29.86,WSW,247,2.7,-999.0,94,-99.99,,,0.07,Acu-Link.com,2013-02-23 04:43:00,
2013-02-22 23:58:00,46.0,44.9,29.84,SSW,202,3.2,-999.0,96,-99.99,,,0.07,Acu-Link.com,2013-02-23 04:58:00,